sensor_id;sensor_type;location;lat;lon;timestamp;P1;durP1;ratioP1;P2;durP2;ratioP2
11893;SDS011;6006;49.696;8.662;2022-10-17T00:01:03;3.90;;;1.90;;
11893;SDS011;6006;49.696;8.662;2022-10-17T00:03:31;2.50;;;2.30;;
11893;SDS011;6006;49.696;8.662;2022-10-17T00:05:58;10.03;;;2.23;;
11893;SDS011;6006;49.696;8.662;2022-10-17T00:08:25;2.40;;;2.23;;
11893;SDS011;6006;49.696;8.662;2022-10-17T00:10:56;3.60;;;2.73;;
11893;SDS011;6006;49.696;8.662;2022-10-17T00:13:24;6.53;;;2.60;;
11893;SDS011;6006;49.696;8.662;2022-10-17T00:15:52;10.17;;;3.03;;
11893;SDS011;6006;49.696;8.662;2022-10-17T00:18:19;6.33;;;2.40;;
11893;SDS011;6006;49.696;8.662;2022-10-17T00:20:45;3.87;;;2.17;;
11893;SDS011;6006;49.696;8.662;2022-10-17T00:23:12;5.83;;;2.50;;
11893;SDS011;6006;49.696;8.662;2022-10-17T00:25:40;2.97;;;1.90;;
11893;SDS011;6006;49.696;8.662;2022-10-17T00:28:09;3.33;;;1.87;;
11893;SDS011;6006;49.696;8.662;2022-10-17T00:30:36;2.60;;;1.93;;
11893;SDS011;6006;49.696;8.662;2022-10-17T00:33:03;3.53;;;2.00;;
11893;SDS011;6006;49.696;8.662;2022-10-17T00:35:30;3.90;;;2.10;;
11893;SDS011;6006;49.696;8.662;2022-10-17T00:37:57;3.23;;;2.27;;
11893;SDS011;6006;49.696;8.662;2022-10-17T00:40:24;5.27;;;2.17;;
11893;SDS011;6006;49.696;8.662;2022-10-17T00:42:51;2.40;;;2.20;;
11893;SDS011;6006;49.696;8.662;2022-10-17T00:45:21;5.47;;;2.07;;
11893;SDS011;6006;49.696;8.662;2022-10-17T00:47:50;4.30;;;2.00;;
11893;SDS011;6006;49.696;8.662;2022-10-17T00:50:21;4.30;;;2.40;;
11893;SDS011;6006;49.696;8.662;2022-10-17T00:52:49;6.60;;;2.70;;
11893;SDS011;6006;49.696;8.662;2022-10-17T00:55:19;2.63;;;1.90;;
11893;SDS011;6006;49.696;8.662;2022-10-17T00:57:48;4.40;;;2.50;;
11893;SDS011;6006;49.696;8.662;2022-10-17T01:00:16;4.50;;;2.50;;
11893;SDS011;6006;49.696;8.662;2022-10-17T01:02:45;7.20;;;2.93;;
11893;SDS011;6006;49.696;8.662;2022-10-17T01:05:13;6.40;;;2.60;;
11893;SDS011;6006;49.696;8.662;2022-10-17T01:07:41;4.13;;;2.30;;
11893;SDS011;6006;49.696;8.662;2022-10-17T01:10:09;4.97;;;2.57;;
11893;SDS011;6006;49.696;8.662;2022-10-17T01:12:40;3.00;;;2.13;;
11893;SDS011;6006;49.696;8.662;2022-10-17T01:15:29;5.13;;;2.10;;
11893;SDS011;6006;49.696;8.662;2022-10-17T01:18:10;4.53;;;2.40;;
11893;SDS011;6006;49.696;8.662;2022-10-17T01:26:54;4.70;;;2.23;;
11893;SDS011;6006;49.696;8.662;2022-10-17T01:29:41;2.37;;;1.90;;
11893;SDS011;6006;49.696;8.662;2022-10-17T01:32:21;6.03;;;2.10;;
11893;SDS011;6006;49.696;8.662;2022-10-17T01:34:55;7.00;;;2.13;;
11893;SDS011;6006;49.696;8.662;2022-10-17T01:37:26;4.73;;;1.83;;
11893;SDS011;6006;49.696;8.662;2022-10-17T01:39:58;3.67;;;2.03;;
11893;SDS011;6006;49.696;8.662;2022-10-17T01:42:32;7.40;;;2.30;;
11893;SDS011;6006;49.696;8.662;2022-10-17T01:45:03;3.17;;;2.10;;
11893;SDS011;6006;49.696;8.662;2022-10-17T01:47:36;7.70;;;2.93;;
11893;SDS011;6006;49.696;8.662;2022-10-17T01:50:05;3.77;;;2.57;;
11893;SDS011;6006;49.696;8.662;2022-10-17T01:52:36;2.97;;;2.23;;
11893;SDS011;6006;49.696;8.662;2022-10-17T01:55:07;9.07;;;3.10;;
11893;SDS011;6006;49.696;8.662;2022-10-17T01:57:37;6.53;;;2.60;;
11893;SDS011;6006;49.696;8.662;2022-10-17T02:00:08;6.33;;;2.83;;
11893;SDS011;6006;49.696;8.662;2022-10-17T02:02:41;7.90;;;2.67;;
11893;SDS011;6006;49.696;8.662;2022-10-17T02:05:10;9.47;;;2.77;;
11893;SDS011;6006;49.696;8.662;2022-10-17T02:07:38;3.47;;;2.20;;
11893;SDS011;6006;49.696;8.662;2022-10-17T02:10:08;3.43;;;2.37;;
11893;SDS011;6006;49.696;8.662;2022-10-17T02:12:44;5.63;;;2.40;;
11893;SDS011;6006;49.696;8.662;2022-10-17T02:18:17;8.07;;;2.33;;
11893;SDS011;6006;49.696;8.662;2022-10-17T02:20:58;4.53;;;2.50;;
11893;SDS011;6006;49.696;8.662;2022-10-17T02:23:29;4.10;;;2.33;;
11893;SDS011;6006;49.696;8.662;2022-10-17T02:26:04;4.20;;;2.10;;
11893;SDS011;6006;49.696;8.662;2022-10-17T02:28:37;3.40;;;2.63;;
11893;SDS011;6006;49.696;8.662;2022-10-17T02:31:09;7.60;;;3.10;;
11893;SDS011;6006;49.696;8.662;2022-10-17T02:33:42;6.37;;;2.80;;
11893;SDS011;6006;49.696;8.662;2022-10-17T02:36:12;3.47;;;1.93;;
11893;SDS011;6006;49.696;8.662;2022-10-17T02:38:44;3.93;;;2.50;;
11893;SDS011;6006;49.696;8.662;2022-10-17T02:41:12;5.40;;;2.67;;
11893;SDS011;6006;49.696;8.662;2022-10-17T02:43:41;11.23;;;3.17;;
11893;SDS011;6006;49.696;8.662;2022-10-17T02:46:11;8.10;;;3.23;;
11893;SDS011;6006;49.696;8.662;2022-10-17T02:48:47;2.80;;;2.60;;
11893;SDS011;6006;49.696;8.662;2022-10-17T02:51:18;5.93;;;2.97;;
11893;SDS011;6006;49.696;8.662;2022-10-17T02:53:54;3.33;;;2.20;;
11893;SDS011;6006;49.696;8.662;2022-10-17T02:56:29;5.30;;;2.23;;
11893;SDS011;6006;49.696;8.662;2022-10-17T02:59:00;3.03;;;2.30;;
11893;SDS011;6006;49.696;8.662;2022-10-17T03:01:29;6.73;;;2.43;;
11893;SDS011;6006;49.696;8.662;2022-10-17T03:04:04;6.60;;;2.50;;
11893;SDS011;6006;49.696;8.662;2022-10-17T03:06:32;2.47;;;2.20;;
11893;SDS011;6006;49.696;8.662;2022-10-17T03:08:59;3.87;;;2.97;;
11893;SDS011;6006;49.696;8.662;2022-10-17T03:11:26;8.97;;;2.90;;
11893;SDS011;6006;49.696;8.662;2022-10-17T03:13:53;2.80;;;2.50;;
11893;SDS011;6006;49.696;8.662;2022-10-17T03:16:20;3.13;;;2.43;;
11893;SDS011;6006;49.696;8.662;2022-10-17T03:18:47;5.87;;;2.30;;
11893;SDS011;6006;49.696;8.662;2022-10-17T03:21:15;5.60;;;3.03;;
11893;SDS011;6006;49.696;8.662;2022-10-17T03:23:42;4.27;;;2.40;;
11893;SDS011;6006;49.696;8.662;2022-10-17T03:26:09;3.23;;;2.10;;
11893;SDS011;6006;49.696;8.662;2022-10-17T03:28:36;5.97;;;2.53;;
11893;SDS011;6006;49.696;8.662;2022-10-17T03:31:06;6.43;;;2.60;;
11893;SDS011;6006;49.696;8.662;2022-10-17T03:33:34;6.80;;;3.10;;
11893;SDS011;6006;49.696;8.662;2022-10-17T03:36:04;5.93;;;2.77;;
11893;SDS011;6006;49.696;8.662;2022-10-17T03:38:33;3.93;;;2.27;;
11893;SDS011;6006;49.696;8.662;2022-10-17T03:41:00;5.27;;;2.40;;
11893;SDS011;6006;49.696;8.662;2022-10-17T03:43:27;2.73;;;2.40;;
11893;SDS011;6006;49.696;8.662;2022-10-17T03:45:55;6.93;;;2.83;;
11893;SDS011;6006;49.696;8.662;2022-10-17T03:48:22;7.07;;;2.70;;
11893;SDS011;6006;49.696;8.662;2022-10-17T03:50:49;4.97;;;2.40;;
11893;SDS011;6006;49.696;8.662;2022-10-17T03:53:16;10.23;;;3.10;;
11893;SDS011;6006;49.696;8.662;2022-10-17T03:55:44;3.57;;;2.07;;
11893;SDS011;6006;49.696;8.662;2022-10-17T03:58:11;4.10;;;2.53;;
11893;SDS011;6006;49.696;8.662;2022-10-17T04:00:38;4.33;;;2.40;;
11893;SDS011;6006;49.696;8.662;2022-10-17T04:03:05;6.53;;;2.87;;
11893;SDS011;6006;49.696;8.662;2022-10-17T04:05:32;4.90;;;2.37;;
11893;SDS011;6006;49.696;8.662;2022-10-17T04:07:59;7.37;;;2.70;;
11893;SDS011;6006;49.696;8.662;2022-10-17T04:10:26;5.50;;;2.70;;
11893;SDS011;6006;49.696;8.662;2022-10-17T04:12:55;6.43;;;2.83;;
11893;SDS011;6006;49.696;8.662;2022-10-17T04:15:22;4.93;;;2.23;;
11893;SDS011;6006;49.696;8.662;2022-10-17T04:17:48;6.87;;;2.53;;
11893;SDS011;6006;49.696;8.662;2022-10-17T04:20:15;3.10;;;2.60;;
11893;SDS011;6006;49.696;8.662;2022-10-17T04:22:42;2.90;;;2.60;;
11893;SDS011;6006;49.696;8.662;2022-10-17T04:25:09;3.17;;;2.40;;
11893;SDS011;6006;49.696;8.662;2022-10-17T04:27:36;6.10;;;2.90;;
11893;SDS011;6006;49.696;8.662;2022-10-17T04:30:05;7.23;;;3.40;;
11893;SDS011;6006;49.696;8.662;2022-10-17T04:32:35;6.23;;;2.80;;
11893;SDS011;6006;49.696;8.662;2022-10-17T04:35:03;5.67;;;3.40;;
11893;SDS011;6006;49.696;8.662;2022-10-17T04:37:30;4.10;;;2.90;;
11893;SDS011;6006;49.696;8.662;2022-10-17T04:39:57;2.63;;;2.43;;
11893;SDS011;6006;49.696;8.662;2022-10-17T04:42:24;7.53;;;3.10;;
11893;SDS011;6006;49.696;8.662;2022-10-17T04:44:51;3.13;;;2.70;;
11893;SDS011;6006;49.696;8.662;2022-10-17T04:47:19;4.00;;;2.43;;
11893;SDS011;6006;49.696;8.662;2022-10-17T04:49:46;2.67;;;2.53;;
11893;SDS011;6006;49.696;8.662;2022-10-17T04:52:13;3.77;;;2.30;;
11893;SDS011;6006;49.696;8.662;2022-10-17T04:54:40;4.00;;;2.73;;
11893;SDS011;6006;49.696;8.662;2022-10-17T04:57:06;6.17;;;2.67;;
11893;SDS011;6006;49.696;8.662;2022-10-17T04:59:33;3.17;;;2.80;;
11893;SDS011;6006;49.696;8.662;2022-10-17T05:02:00;3.07;;;2.33;;
11893;SDS011;6006;49.696;8.662;2022-10-17T05:04:28;5.47;;;3.30;;
11893;SDS011;6006;49.696;8.662;2022-10-17T05:06:55;4.10;;;3.10;;
11893;SDS011;6006;49.696;8.662;2022-10-17T05:09:22;5.37;;;3.03;;
11893;SDS011;6006;49.696;8.662;2022-10-17T05:11:49;3.77;;;2.50;;
11893;SDS011;6006;49.696;8.662;2022-10-17T05:14:16;5.70;;;2.80;;
11893;SDS011;6006;49.696;8.662;2022-10-17T05:16:43;4.07;;;2.40;;
11893;SDS011;6006;49.696;8.662;2022-10-17T05:19:10;3.63;;;3.30;;
11893;SDS011;6006;49.696;8.662;2022-10-17T05:21:38;5.87;;;3.50;;
11893;SDS011;6006;49.696;8.662;2022-10-17T05:24:06;7.50;;;2.97;;
11893;SDS011;6006;49.696;8.662;2022-10-17T05:26:33;5.73;;;3.30;;
11893;SDS011;6006;49.696;8.662;2022-10-17T05:29:00;6.80;;;3.50;;
11893;SDS011;6006;49.696;8.662;2022-10-17T05:31:28;12.50;;;3.60;;
11893;SDS011;6006;49.696;8.662;2022-10-17T05:33:55;6.57;;;4.33;;
11893;SDS011;6006;49.696;8.662;2022-10-17T05:36:25;7.77;;;2.77;;
11893;SDS011;6006;49.696;8.662;2022-10-17T05:38:53;4.27;;;3.00;;
11893;SDS011;6006;49.696;8.662;2022-10-17T05:41:20;5.67;;;2.70;;
11893;SDS011;6006;49.696;8.662;2022-10-17T05:43:47;8.63;;;3.70;;
11893;SDS011;6006;49.696;8.662;2022-10-17T05:46:14;5.20;;;3.40;;
11893;SDS011;6006;49.696;8.662;2022-10-17T05:48:41;9.83;;;3.50;;
11893;SDS011;6006;49.696;8.662;2022-10-17T05:51:09;5.03;;;3.43;;
11893;SDS011;6006;49.696;8.662;2022-10-17T05:53:36;4.73;;;3.03;;
11893;SDS011;6006;49.696;8.662;2022-10-17T05:56:06;7.23;;;3.60;;
11893;SDS011;6006;49.696;8.662;2022-10-17T05:58:34;7.87;;;3.90;;
11893;SDS011;6006;49.696;8.662;2022-10-17T06:01:02;4.83;;;3.60;;
11893;SDS011;6006;49.696;8.662;2022-10-17T06:03:31;4.17;;;3.00;;
11893;SDS011;6006;49.696;8.662;2022-10-17T06:06:01;5.90;;;3.77;;
11893;SDS011;6006;49.696;8.662;2022-10-17T06:08:29;6.63;;;4.87;;
11893;SDS011;6006;49.696;8.662;2022-10-17T06:10:56;5.70;;;3.80;;
11893;SDS011;6006;49.696;8.662;2022-10-17T06:13:24;6.40;;;4.27;;
11893;SDS011;6006;49.696;8.662;2022-10-17T06:15:51;4.73;;;4.23;;
11893;SDS011;6006;49.696;8.662;2022-10-17T06:18:18;5.63;;;3.70;;
11893;SDS011;6006;49.696;8.662;2022-10-17T06:20:45;4.77;;;3.93;;
11893;SDS011;6006;49.696;8.662;2022-10-17T06:23:12;4.23;;;3.73;;
11893;SDS011;6006;49.696;8.662;2022-10-17T06:25:39;4.83;;;3.63;;
11893;SDS011;6006;49.696;8.662;2022-10-17T06:28:05;9.20;;;4.33;;
11893;SDS011;6006;49.696;8.662;2022-10-17T06:30:34;4.50;;;3.33;;
11893;SDS011;6006;49.696;8.662;2022-10-17T06:33:03;5.67;;;4.00;;
11893;SDS011;6006;49.696;8.662;2022-10-17T06:35:30;6.00;;;4.17;;
11893;SDS011;6006;49.696;8.662;2022-10-17T06:37:57;5.90;;;3.70;;
11893;SDS011;6006;49.696;8.662;2022-10-17T06:40:24;6.90;;;3.50;;
11893;SDS011;6006;49.696;8.662;2022-10-17T06:42:51;4.17;;;3.30;;
11893;SDS011;6006;49.696;8.662;2022-10-17T06:45:18;5.03;;;3.67;;
11893;SDS011;6006;49.696;8.662;2022-10-17T06:47:46;4.40;;;3.07;;
11893;SDS011;6006;49.696;8.662;2022-10-17T06:50:13;5.73;;;3.60;;
11893;SDS011;6006;49.696;8.662;2022-10-17T06:52:41;8.10;;;4.53;;
11893;SDS011;6006;49.696;8.662;2022-10-17T06:55:08;5.57;;;3.13;;
11893;SDS011;6006;49.696;8.662;2022-10-17T06:57:35;3.73;;;3.30;;
11893;SDS011;6006;49.696;8.662;2022-10-17T07:00:02;3.40;;;3.20;;
11893;SDS011;6006;49.696;8.662;2022-10-17T07:02:30;3.23;;;2.97;;
11893;SDS011;6006;49.696;8.662;2022-10-17T07:04:59;4.67;;;3.10;;
11893;SDS011;6006;49.696;8.662;2022-10-17T07:07:26;3.83;;;3.40;;
11893;SDS011;6006;49.696;8.662;2022-10-17T07:09:55;5.37;;;3.03;;
11893;SDS011;6006;49.696;8.662;2022-10-17T07:12:22;6.70;;;3.20;;
11893;SDS011;6006;49.696;8.662;2022-10-17T07:14:49;3.40;;;3.10;;
11893;SDS011;6006;49.696;8.662;2022-10-17T07:17:16;7.97;;;3.23;;
11893;SDS011;6006;49.696;8.662;2022-10-17T07:19:43;3.23;;;2.90;;
11893;SDS011;6006;49.696;8.662;2022-10-17T07:22:12;5.20;;;2.90;;
11893;SDS011;6006;49.696;8.662;2022-10-17T07:24:38;3.60;;;3.00;;
11893;SDS011;6006;49.696;8.662;2022-10-17T07:27:05;4.77;;;2.80;;
11893;SDS011;6006;49.696;8.662;2022-10-17T07:29:32;4.83;;;2.80;;
11893;SDS011;6006;49.696;8.662;2022-10-17T07:31:59;6.13;;;3.00;;
11893;SDS011;6006;49.696;8.662;2022-10-17T07:34:28;7.83;;;3.30;;
11893;SDS011;6006;49.696;8.662;2022-10-17T07:36:55;8.77;;;3.23;;
11893;SDS011;6006;49.696;8.662;2022-10-17T07:39:23;8.23;;;3.67;;
11893;SDS011;6006;49.696;8.662;2022-10-17T07:41:50;8.57;;;4.50;;
11893;SDS011;6006;49.696;8.662;2022-10-17T07:44:17;11.93;;;5.27;;
11893;SDS011;6006;49.696;8.662;2022-10-17T07:46:44;10.17;;;4.43;;
11893;SDS011;6006;49.696;8.662;2022-10-17T07:49:11;7.40;;;5.07;;
11893;SDS011;6006;49.696;8.662;2022-10-17T07:51:38;5.87;;;5.23;;
11893;SDS011;6006;49.696;8.662;2022-10-17T07:54:05;8.07;;;6.27;;
11893;SDS011;6006;49.696;8.662;2022-10-17T07:56:33;7.13;;;5.93;;
11893;SDS011;6006;49.696;8.662;2022-10-17T07:59:01;7.87;;;5.90;;
11893;SDS011;6006;49.696;8.662;2022-10-17T08:01:28;8.13;;;5.07;;
11893;SDS011;6006;49.696;8.662;2022-10-17T08:03:54;11.07;;;6.23;;
11893;SDS011;6006;49.696;8.662;2022-10-17T08:06:21;9.43;;;5.67;;
11893;SDS011;6006;49.696;8.662;2022-10-17T08:08:48;8.00;;;5.15;;
11893;SDS011;6006;49.696;8.662;2022-10-17T08:11:15;5.70;;;4.93;;
11893;SDS011;6006;49.696;8.662;2022-10-17T08:13:43;7.55;;;5.38;;
11893;SDS011;6006;49.696;8.662;2022-10-17T08:16:11;5.72;;;4.93;;
11893;SDS011;6006;49.696;8.662;2022-10-17T08:18:38;5.93;;;5.30;;
11893;SDS011;6006;49.696;8.662;2022-10-17T08:21:07;4.75;;;4.13;;
11893;SDS011;6006;49.696;8.662;2022-10-17T08:23:35;5.05;;;4.55;;
11893;SDS011;6006;49.696;8.662;2022-10-17T08:26:03;6.40;;;4.55;;
11893;SDS011;6006;49.696;8.662;2022-10-17T08:28:33;5.50;;;5.07;;
11893;SDS011;6006;49.696;8.662;2022-10-17T08:31:02;5.45;;;4.60;;
11893;SDS011;6006;49.696;8.662;2022-10-17T08:33:30;8.02;;;4.55;;
11893;SDS011;6006;49.696;8.662;2022-10-17T08:35:57;4.78;;;3.88;;
11893;SDS011;6006;49.696;8.662;2022-10-17T08:38:24;5.05;;;3.90;;
11893;SDS011;6006;49.696;8.662;2022-10-17T08:40:51;5.55;;;4.20;;
11893;SDS011;6006;49.696;8.662;2022-10-17T08:43:25;3.92;;;3.53;;
11893;SDS011;6006;49.696;8.662;2022-10-17T08:46:04;4.78;;;3.17;;
11893;SDS011;6006;49.696;8.662;2022-10-17T08:48:33;5.05;;;3.55;;
11893;SDS011;6006;49.696;8.662;2022-10-17T08:51:05;6.18;;;3.20;;
11893;SDS011;6006;49.696;8.662;2022-10-17T08:53:38;3.97;;;3.17;;
11893;SDS011;6006;49.696;8.662;2022-10-17T08:56:12;4.32;;;3.03;;
11893;SDS011;6006;49.696;8.662;2022-10-17T08:58:42;3.67;;;2.72;;
11893;SDS011;6006;49.696;8.662;2022-10-17T09:01:11;2.63;;;2.42;;
11893;SDS011;6006;49.696;8.662;2022-10-17T09:04:01;4.20;;;2.80;;
11893;SDS011;6006;49.696;8.662;2022-10-17T09:06:42;3.95;;;3.05;;
11893;SDS011;6006;49.696;8.662;2022-10-17T09:09:15;4.82;;;2.75;;
11893;SDS011;6006;49.696;8.662;2022-10-17T09:11:56;2.97;;;2.33;;
11893;SDS011;6006;49.696;8.662;2022-10-17T09:14:37;4.15;;;2.55;;
11893;SDS011;6006;49.696;8.662;2022-10-17T09:17:20;6.13;;;2.92;;
11893;SDS011;6006;49.696;8.662;2022-10-17T09:19:58;3.70;;;2.10;;
11893;SDS011;6006;49.696;8.662;2022-10-17T09:22:27;2.40;;;1.92;;
11893;SDS011;6006;49.696;8.662;2022-10-17T09:24:59;5.85;;;2.17;;
11893;SDS011;6006;49.696;8.662;2022-10-17T09:27:31;2.53;;;2.20;;
11893;SDS011;6006;49.696;8.662;2022-10-17T09:30:05;2.65;;;2.08;;
11893;SDS011;6006;49.696;8.662;2022-10-17T09:32:51;3.08;;;2.30;;
11893;SDS011;6006;49.696;8.662;2022-10-17T09:35:19;5.72;;;2.08;;
11893;SDS011;6006;49.696;8.662;2022-10-17T09:37:47;2.53;;;2.20;;
11893;SDS011;6006;49.696;8.662;2022-10-17T09:40:17;4.32;;;2.60;;
11893;SDS011;6006;49.696;8.662;2022-10-17T09:42:51;5.80;;;2.22;;
11893;SDS011;6006;49.696;8.662;2022-10-17T09:45:19;6.78;;;2.00;;
11893;SDS011;6006;49.696;8.662;2022-10-17T09:47:54;2.65;;;2.30;;
11893;SDS011;6006;49.696;8.662;2022-10-17T09:50:27;3.88;;;2.30;;
11893;SDS011;6006;49.696;8.662;2022-10-17T09:53:00;1.80;;;1.70;;
11893;SDS011;6006;49.696;8.662;2022-10-17T09:55:34;2.05;;;1.95;;
11893;SDS011;6006;49.696;8.662;2022-10-17T09:58:04;3.33;;;2.03;;
11893;SDS011;6006;49.696;8.662;2022-10-17T10:00:33;3.97;;;2.10;;
11893;SDS011;6006;49.696;8.662;2022-10-17T10:03:11;6.30;;;1.85;;
11893;SDS011;6006;49.696;8.662;2022-10-17T10:05:57;5.25;;;2.30;;
11893;SDS011;6006;49.696;8.662;2022-10-17T10:08:26;3.85;;;1.75;;
11893;SDS011;6006;49.696;8.662;2022-10-17T10:10:59;1.83;;;1.73;;
11893;SDS011;6006;49.696;8.662;2022-10-17T10:13:29;3.92;;;1.88;;
11893;SDS011;6006;49.696;8.662;2022-10-17T10:16:12;4.03;;;1.75;;
11893;SDS011;6006;49.696;8.662;2022-10-17T10:18:56;4.70;;;2.20;;
11893;SDS011;6006;49.696;8.662;2022-10-17T10:21:24;5.13;;;1.70;;
11893;SDS011;6006;49.696;8.662;2022-10-17T10:24:02;3.45;;;1.90;;
11893;SDS011;6006;49.696;8.662;2022-10-17T10:26:33;4.20;;;1.80;;
11893;SDS011;6006;49.696;8.662;2022-10-17T10:29:04;2.38;;;1.75;;
11893;SDS011;6006;49.696;8.662;2022-10-17T10:31:43;3.33;;;1.83;;
11893;SDS011;6006;49.696;8.662;2022-10-17T10:34:14;1.73;;;1.63;;
11893;SDS011;6006;49.696;8.662;2022-10-17T10:36:47;3.80;;;1.77;;
11893;SDS011;6006;49.696;8.662;2022-10-17T10:39:25;2.00;;;1.80;;
11893;SDS011;6006;49.696;8.662;2022-10-17T10:41:56;2.42;;;1.83;;
11893;SDS011;6006;49.696;8.662;2022-10-17T10:44:24;3.72;;;1.90;;
11893;SDS011;6006;49.696;8.662;2022-10-17T10:47:07;2.38;;;1.67;;
11893;SDS011;6006;49.696;8.662;2022-10-17T10:49:42;1.77;;;1.40;;
11893;SDS011;6006;49.696;8.662;2022-10-17T10:52:11;4.15;;;1.48;;
11893;SDS011;6006;49.696;8.662;2022-10-17T10:54:46;1.75;;;1.60;;
11893;SDS011;6006;49.696;8.662;2022-10-17T10:57:19;3.92;;;1.60;;
11893;SDS011;6006;49.696;8.662;2022-10-17T10:59:52;2.78;;;1.50;;
11893;SDS011;6006;49.696;8.662;2022-10-17T11:02:25;3.53;;;2.08;;
11893;SDS011;6006;49.696;8.662;2022-10-17T11:04:58;2.50;;;1.30;;
11893;SDS011;6006;49.696;8.662;2022-10-17T11:07:28;4.13;;;1.83;;
11893;SDS011;6006;49.696;8.662;2022-10-17T11:09:59;1.60;;;1.50;;
11893;SDS011;6006;49.696;8.662;2022-10-17T11:12:34;2.45;;;1.60;;
11893;SDS011;6006;49.696;8.662;2022-10-17T11:15:06;3.92;;;1.63;;
11893;SDS011;6006;49.696;8.662;2022-10-17T11:17:39;1.70;;;1.60;;
11893;SDS011;6006;49.696;8.662;2022-10-17T11:20:14;3.25;;;1.80;;
11893;SDS011;6006;49.696;8.662;2022-10-17T11:22:47;6.85;;;1.80;;
11893;SDS011;6006;49.696;8.662;2022-10-17T11:25:23;1.65;;;1.55;;
11893;SDS011;6006;49.696;8.662;2022-10-17T11:27:57;3.65;;;1.90;;
11893;SDS011;6006;49.696;8.662;2022-10-17T11:30:26;3.72;;;1.48;;
11893;SDS011;6006;49.696;8.662;2022-10-17T11:32:59;3.20;;;1.90;;
11893;SDS011;6006;49.696;8.662;2022-10-17T11:35:31;1.88;;;1.55;;
11893;SDS011;6006;49.696;8.662;2022-10-17T11:38:05;2.33;;;1.90;;
11893;SDS011;6006;49.696;8.662;2022-10-17T11:40:43;2.67;;;1.88;;
11893;SDS011;6006;49.696;8.662;2022-10-17T11:43:16;3.92;;;1.80;;
11893;SDS011;6006;49.696;8.662;2022-10-17T11:45:46;1.75;;;1.48;;
11893;SDS011;6006;49.696;8.662;2022-10-17T11:48:18;3.15;;;2.00;;
11893;SDS011;6006;49.696;8.662;2022-10-17T11:50:52;3.05;;;2.17;;
11893;SDS011;6006;49.696;8.662;2022-10-17T11:53:25;3.83;;;1.42;;
11893;SDS011;6006;49.696;8.662;2022-10-17T11:55:56;3.97;;;1.92;;
11893;SDS011;6006;49.696;8.662;2022-10-17T11:58:31;6.13;;;1.98;;
11893;SDS011;6006;49.696;8.662;2022-10-17T12:01:06;3.30;;;1.52;;
11893;SDS011;6006;49.696;8.662;2022-10-17T12:03:43;5.50;;;3.28;;
11893;SDS011;6006;49.696;8.662;2022-10-17T12:06:19;3.22;;;2.00;;
11893;SDS011;6006;49.696;8.662;2022-10-17T12:08:57;6.47;;;3.38;;
11893;SDS011;6006;49.696;8.662;2022-10-17T12:11:33;6.70;;;3.20;;
11893;SDS011;6006;49.696;8.662;2022-10-17T12:17:05;8.77;;;4.55;;
11893;SDS011;6006;49.696;8.662;2022-10-17T12:23:04;15.15;;;6.25;;
11893;SDS011;6006;49.696;8.662;2022-10-17T12:25:48;18.38;;;8.15;;
11893;SDS011;6006;49.696;8.662;2022-10-17T12:28:18;3.75;;;2.10;;
11893;SDS011;6006;49.696;8.662;2022-10-17T12:30:52;7.47;;;3.42;;
11893;SDS011;6006;49.696;8.662;2022-10-17T12:33:29;3.35;;;1.95;;
11893;SDS011;6006;49.696;8.662;2022-10-17T12:48:12;6.32;;;2.55;;
11893;SDS011;6006;49.696;8.662;2022-10-17T12:53:26;8.85;;;3.83;;
11893;SDS011;6006;49.696;8.662;2022-10-17T12:56:01;31.83;;;12.52;;
11893;SDS011;6006;49.696;8.662;2022-10-17T12:58:29;5.75;;;2.30;;
11893;SDS011;6006;49.696;8.662;2022-10-17T13:00:56;4.00;;;2.45;;
11893;SDS011;6006;49.696;8.662;2022-10-17T13:03:24;4.10;;;2.70;;
11893;SDS011;6006;49.696;8.662;2022-10-17T13:05:54;3.95;;;2.28;;
11893;SDS011;6006;49.696;8.662;2022-10-17T13:08:24;3.00;;;1.63;;
11893;SDS011;6006;49.696;8.662;2022-10-17T13:10:55;5.07;;;2.45;;
11893;SDS011;6006;49.696;8.662;2022-10-17T13:13:24;3.33;;;1.77;;
11893;SDS011;6006;49.696;8.662;2022-10-17T13:16:06;2.67;;;1.92;;
11893;SDS011;6006;49.696;8.662;2022-10-17T13:18:33;4.05;;;1.95;;
11893;SDS011;6006;49.696;8.662;2022-10-17T13:21:01;3.70;;;1.65;;
11893;SDS011;6006;49.696;8.662;2022-10-17T13:23:31;4.45;;;2.30;;
11893;SDS011;6006;49.696;8.662;2022-10-17T13:26:07;8.88;;;2.83;;
11893;SDS011;6006;49.696;8.662;2022-10-17T13:28:40;4.10;;;1.90;;
11893;SDS011;6006;49.696;8.662;2022-10-17T13:31:21;5.63;;;2.38;;
11893;SDS011;6006;49.696;8.662;2022-10-17T13:33:54;2.97;;;2.03;;
11893;SDS011;6006;49.696;8.662;2022-10-17T13:36:22;3.08;;;2.08;;
11893;SDS011;6006;49.696;8.662;2022-10-17T13:38:50;4.30;;;2.15;;
11893;SDS011;6006;49.696;8.662;2022-10-17T13:41:20;3.55;;;2.25;;
11893;SDS011;6006;49.696;8.662;2022-10-17T13:43:50;4.10;;;1.88;;
11893;SDS011;6006;49.696;8.662;2022-10-17T13:46:22;6.05;;;3.00;;
11893;SDS011;6006;49.696;8.662;2022-10-17T13:48:53;7.57;;;3.55;;
11893;SDS011;6006;49.696;8.662;2022-10-17T13:51:21;5.20;;;2.22;;
11893;SDS011;6006;49.696;8.662;2022-10-17T13:53:49;6.43;;;2.17;;
11893;SDS011;6006;49.696;8.662;2022-10-17T13:56:17;7.20;;;2.42;;
11893;SDS011;6006;49.696;8.662;2022-10-17T13:58:45;5.45;;;2.25;;
11893;SDS011;6006;49.696;8.662;2022-10-17T14:01:13;19.00;;;3.38;;
11893;SDS011;6006;49.696;8.662;2022-10-17T14:03:42;3.03;;;1.95;;
11893;SDS011;6006;49.696;8.662;2022-10-17T14:06:13;3.42;;;1.80;;
11893;SDS011;6006;49.696;8.662;2022-10-17T14:08:48;7.05;;;2.42;;
11893;SDS011;6006;49.696;8.662;2022-10-17T14:11:21;4.13;;;2.30;;
11893;SDS011;6006;49.696;8.662;2022-10-17T14:13:50;4.30;;;2.00;;
11893;SDS011;6006;49.696;8.662;2022-10-17T14:16:20;2.60;;;2.13;;
11893;SDS011;6006;49.696;8.662;2022-10-17T14:18:50;4.10;;;1.88;;
11893;SDS011;6006;49.696;8.662;2022-10-17T14:21:19;4.88;;;2.10;;
11893;SDS011;6006;49.696;8.662;2022-10-17T14:23:47;5.93;;;2.05;;
11893;SDS011;6006;49.696;8.662;2022-10-17T14:26:16;2.33;;;2.13;;
11893;SDS011;6006;49.696;8.662;2022-10-17T14:28:46;6.75;;;2.17;;
11893;SDS011;6006;49.696;8.662;2022-10-17T14:31:19;2.15;;;1.90;;
11893;SDS011;6006;49.696;8.662;2022-10-17T14:33:51;4.85;;;1.98;;
11893;SDS011;6006;49.696;8.662;2022-10-17T14:36:19;3.25;;;1.83;;
11893;SDS011;6006;49.696;8.662;2022-10-17T14:38:56;3.97;;;1.75;;
11893;SDS011;6006;49.696;8.662;2022-10-17T14:41:24;2.08;;;1.88;;
11893;SDS011;6006;49.696;8.662;2022-10-17T14:43:56;1.92;;;1.83;;
11893;SDS011;6006;49.696;8.662;2022-10-17T14:46:25;2.53;;;2.22;;
11893;SDS011;6006;49.696;8.662;2022-10-17T14:48:56;2.67;;;2.00;;
11893;SDS011;6006;49.696;8.662;2022-10-17T14:51:28;2.88;;;2.28;;
11893;SDS011;6006;49.696;8.662;2022-10-17T14:53:59;8.90;;;4.07;;
11893;SDS011;6006;49.696;8.662;2022-10-17T14:56:33;5.35;;;2.47;;
11893;SDS011;6006;49.696;8.662;2022-10-17T14:59:04;5.13;;;2.30;;
11893;SDS011;6006;49.696;8.662;2022-10-17T15:01:32;7.07;;;3.60;;
11893;SDS011;6006;49.696;8.662;2022-10-17T15:04:00;3.35;;;2.28;;
11893;SDS011;6006;49.696;8.662;2022-10-17T15:06:28;3.70;;;2.70;;
11893;SDS011;6006;49.696;8.662;2022-10-17T15:08:57;7.40;;;2.95;;
11893;SDS011;6006;49.696;8.662;2022-10-17T15:11:24;11.27;;;4.22;;
11893;SDS011;6006;49.696;8.662;2022-10-17T15:13:51;5.53;;;2.40;;
11893;SDS011;6006;49.696;8.662;2022-10-17T15:16:19;7.13;;;3.22;;
11893;SDS011;6006;49.696;8.662;2022-10-17T15:18:47;6.80;;;4.00;;
11893;SDS011;6006;49.696;8.662;2022-10-17T15:21:18;14.57;;;5.13;;
11893;SDS011;6006;49.696;8.662;2022-10-17T15:23:46;8.75;;;3.30;;
11893;SDS011;6006;49.696;8.662;2022-10-17T15:26:13;7.75;;;4.15;;
11893;SDS011;6006;49.696;8.662;2022-10-17T15:28:42;5.30;;;2.30;;
11893;SDS011;6006;49.696;8.662;2022-10-17T15:31:10;4.97;;;2.53;;
11893;SDS011;6006;49.696;8.662;2022-10-17T15:33:38;6.47;;;3.42;;
11893;SDS011;6006;49.696;8.662;2022-10-17T15:36:16;2.85;;;2.17;;
11893;SDS011;6006;49.696;8.662;2022-10-17T15:38:45;5.97;;;2.55;;
11893;SDS011;6006;49.696;8.662;2022-10-17T15:41:13;2.63;;;2.30;;
11893;SDS011;6006;49.696;8.662;2022-10-17T15:43:40;4.70;;;2.47;;
11893;SDS011;6006;49.696;8.662;2022-10-17T15:46:13;4.38;;;2.45;;
11893;SDS011;6006;49.696;8.662;2022-10-17T15:48:43;6.38;;;2.70;;